sensor_id;sensor_type;location;lat;lon;timestamp;P1;durP1;ratioP1;P2;durP2;ratioP2
29238;SDS011;16267;48.194;11.546;2023-04-03T00:00:23;7.97;;;6.13;;
29238;SDS011;16267;48.194;11.546;2023-04-03T00:02:48;8.43;;;6.43;;
29238;SDS011;16267;48.194;11.546;2023-04-03T00:05:14;11.27;;;6.82;;
29238;SDS011;16267;48.194;11.546;2023-04-03T00:07:40;9.25;;;6.40;;
29238;SDS011;16267;48.194;11.546;2023-04-03T00:10:06;8.35;;;5.75;;
29238;SDS011;16267;48.194;11.546;2023-04-03T00:12:33;11.85;;;6.63;;
29238;SDS011;16267;48.194;11.546;2023-04-03T00:14:58;10.02;;;6.22;;
29238;SDS011;16267;48.194;11.546;2023-04-03T00:17:24;13.00;;;7.25;;
29238;SDS011;16267;48.194;11.546;2023-04-03T00:19:50;9.02;;;6.20;;
29238;SDS011;16267;48.194;11.546;2023-04-03T00:22:16;9.00;;;5.47;;
29238;SDS011;16267;48.194;11.546;2023-04-03T00:24:42;10.02;;;6.18;;
29238;SDS011;16267;48.194;11.546;2023-04-03T00:27:07;10.38;;;6.43;;
29238;SDS011;16267;48.194;11.546;2023-04-03T00:29:33;8.90;;;5.82;;
29238;SDS011;16267;48.194;11.546;2023-04-03T00:31:59;9.63;;;6.30;;
29238;SDS011;16267;48.194;11.546;2023-04-03T00:34:25;7.65;;;5.30;;
29238;SDS011;16267;48.194;11.546;2023-04-03T00:36:51;7.72;;;5.43;;
29238;SDS011;16267;48.194;11.546;2023-04-03T00:39:16;11.98;;;5.82;;
29238;SDS011;16267;48.194;11.546;2023-04-03T00:41:42;6.90;;;5.68;;
29238;SDS011;16267;48.194;11.546;2023-04-03T00:44:18;9.55;;;5.57;;
29238;SDS011;16267;48.194;11.546;2023-04-03T00:46:45;8.32;;;5.47;;
29238;SDS011;16267;48.194;11.546;2023-04-03T00:49:11;12.85;;;5.95;;
29238;SDS011;16267;48.194;11.546;2023-04-03T00:51:36;9.20;;;5.13;;
29238;SDS011;16267;48.194;11.546;2023-04-03T00:54:02;12.98;;;6.35;;
29238;SDS011;16267;48.194;11.546;2023-04-03T00:56:32;7.60;;;5.43;;
29238;SDS011;16267;48.194;11.546;2023-04-03T01:01:30;9.63;;;5.38;;
29238;SDS011;16267;48.194;11.546;2023-04-03T01:03:58;10.43;;;5.95;;
29238;SDS011;16267;48.194;11.546;2023-04-03T01:06:26;6.97;;;5.43;;
29238;SDS011;16267;48.194;11.546;2023-04-03T01:08:57;7.87;;;4.67;;
29238;SDS011;16267;48.194;11.546;2023-04-03T01:11:24;7.20;;;5.10;;
29238;SDS011;16267;48.194;11.546;2023-04-03T01:13:51;7.80;;;4.75;;
29238;SDS011;16267;48.194;11.546;2023-04-03T01:16:17;11.93;;;6.28;;
29238;SDS011;16267;48.194;11.546;2023-04-03T01:18:43;6.95;;;5.45;;
29238;SDS011;16267;48.194;11.546;2023-04-03T01:24:36;11.43;;;5.82;;
29238;SDS011;16267;48.194;11.546;2023-04-03T01:29:34;7.05;;;5.05;;
29238;SDS011;16267;48.194;11.546;2023-04-03T01:32:01;8.98;;;5.40;;
29238;SDS011;16267;48.194;11.546;2023-04-03T01:34:28;7.90;;;5.32;;
29238;SDS011;16267;48.194;11.546;2023-04-03T01:37:01;9.20;;;5.70;;
29238;SDS011;16267;48.194;11.546;2023-04-03T01:39:27;7.20;;;5.30;;
29238;SDS011;16267;48.194;11.546;2023-04-03T01:41:53;7.22;;;5.05;;
29238;SDS011;16267;48.194;11.546;2023-04-03T01:44:19;7.53;;;5.25;;
29238;SDS011;16267;48.194;11.546;2023-04-03T01:46:45;6.28;;;5.18;;
29238;SDS011;16267;48.194;11.546;2023-04-03T01:49:11;7.93;;;4.57;;
29238;SDS011;16267;48.194;11.546;2023-04-03T01:51:37;7.47;;;5.10;;
29238;SDS011;16267;48.194;11.546;2023-04-03T01:54:02;8.55;;;4.65;;
29238;SDS011;16267;48.194;11.546;2023-04-03T01:56:28;7.63;;;5.50;;
29238;SDS011;16267;48.194;11.546;2023-04-03T01:58:54;6.32;;;4.57;;
29238;SDS011;16267;48.194;11.546;2023-04-03T02:01:20;7.93;;;5.13;;
29238;SDS011;16267;48.194;11.546;2023-04-03T02:03:46;9.43;;;5.05;;
29238;SDS011;16267;48.194;11.546;2023-04-03T02:06:11;7.47;;;4.90;;
29238;SDS011;16267;48.194;11.546;2023-04-03T02:08:37;8.90;;;4.72;;
29238;SDS011;16267;48.194;11.546;2023-04-03T02:11:03;8.52;;;4.75;;
29238;SDS011;16267;48.194;11.546;2023-04-03T02:13:29;6.78;;;4.68;;
29238;SDS011;16267;48.194;11.546;2023-04-03T02:15:54;8.13;;;4.72;;
29238;SDS011;16267;48.194;11.546;2023-04-03T02:18:20;7.38;;;4.90;;
29238;SDS011;16267;48.194;11.546;2023-04-03T02:20:46;7.55;;;4.20;;
29238;SDS011;16267;48.194;11.546;2023-04-03T02:23:14;6.57;;;4.18;;
29238;SDS011;16267;48.194;11.546;2023-04-03T02:25:39;8.20;;;4.75;;
29238;SDS011;16267;48.194;11.546;2023-04-03T02:28:05;7.53;;;4.25;;
29238;SDS011;16267;48.194;11.546;2023-04-03T02:30:31;4.95;;;3.85;;
29238;SDS011;16267;48.194;11.546;2023-04-03T02:32:57;7.65;;;4.57;;
29238;SDS011;16267;48.194;11.546;2023-04-03T02:35:23;5.93;;;4.07;;
29238;SDS011;16267;48.194;11.546;2023-04-03T02:37:48;6.82;;;3.92;;
29238;SDS011;16267;48.194;11.546;2023-04-03T02:40:14;6.93;;;3.92;;
29238;SDS011;16267;48.194;11.546;2023-04-03T02:42:40;5.70;;;4.88;;
29238;SDS011;16267;48.194;11.546;2023-04-03T02:45:06;6.03;;;4.32;;
29238;SDS011;16267;48.194;11.546;2023-04-03T02:47:32;6.70;;;4.03;;
29238;SDS011;16267;48.194;11.546;2023-04-03T02:49:58;4.80;;;3.83;;
29238;SDS011;16267;48.194;11.546;2023-04-03T02:52:24;5.90;;;4.18;;
29238;SDS011;16267;48.194;11.546;2023-04-03T02:54:50;5.47;;;3.80;;
29238;SDS011;16267;48.194;11.546;2023-04-03T02:57:15;7.43;;;3.35;;
29238;SDS011;16267;48.194;11.546;2023-04-03T02:59:41;7.28;;;4.13;;
29238;SDS011;16267;48.194;11.546;2023-04-03T03:02:08;7.07;;;3.95;;
29238;SDS011;16267;48.194;11.546;2023-04-03T03:04:34;4.90;;;3.35;;
29238;SDS011;16267;48.194;11.546;2023-04-03T03:07:01;9.15;;;4.10;;
29238;SDS011;16267;48.194;11.546;2023-04-03T03:09:27;4.45;;;3.30;;
29238;SDS011;16267;48.194;11.546;2023-04-03T03:11:54;5.05;;;3.67;;
29238;SDS011;16267;48.194;11.546;2023-04-03T03:14:21;5.68;;;3.30;;
29238;SDS011;16267;48.194;11.546;2023-04-03T03:16:47;6.47;;;3.65;;
29238;SDS011;16267;48.194;11.546;2023-04-03T03:19:13;4.38;;;3.50;;
29238;SDS011;16267;48.194;11.546;2023-04-03T03:21:39;5.63;;;3.53;;
29238;SDS011;16267;48.194;11.546;2023-04-03T03:24:05;4.53;;;3.40;;
29238;SDS011;16267;48.194;11.546;2023-04-03T03:26:31;5.30;;;3.47;;
29238;SDS011;16267;48.194;11.546;2023-04-03T03:28:57;3.80;;;2.90;;
29238;SDS011;16267;48.194;11.546;2023-04-03T03:31:22;8.30;;;3.72;;
29238;SDS011;16267;48.194;11.546;2023-04-03T03:33:48;4.68;;;3.58;;
29238;SDS011;16267;48.194;11.546;2023-04-03T03:36:14;4.90;;;3.30;;
29238;SDS011;16267;48.194;11.546;2023-04-03T03:38:40;4.78;;;3.67;;
29238;SDS011;16267;48.194;11.546;2023-04-03T03:41:05;5.50;;;3.42;;
29238;SDS011;16267;48.194;11.546;2023-04-03T03:43:31;6.90;;;3.40;;
29238;SDS011;16267;48.194;11.546;2023-04-03T03:45:57;6.35;;;3.60;;
29238;SDS011;16267;48.194;11.546;2023-04-03T03:48:23;6.03;;;3.70;;
29238;SDS011;16267;48.194;11.546;2023-04-03T03:50:49;10.50;;;4.30;;
29238;SDS011;16267;48.194;11.546;2023-04-03T03:53:15;7.22;;;3.85;;
29238;SDS011;16267;48.194;11.546;2023-04-03T03:55:41;5.10;;;3.67;;
29238;SDS011;16267;48.194;11.546;2023-04-03T03:58:06;6.00;;;3.80;;
29238;SDS011;16267;48.194;11.546;2023-04-03T04:00:32;6.97;;;3.70;;
29238;SDS011;16267;48.194;11.546;2023-04-03T04:02:58;6.53;;;3.55;;
29238;SDS011;16267;48.194;11.546;2023-04-03T04:05:24;6.70;;;3.70;;
29238;SDS011;16267;48.194;11.546;2023-04-03T04:07:50;4.25;;;3.38;;
29238;SDS011;16267;48.194;11.546;2023-04-03T04:10:16;6.22;;;3.50;;
29238;SDS011;16267;48.194;11.546;2023-04-03T04:12:41;5.60;;;3.72;;
29238;SDS011;16267;48.194;11.546;2023-04-03T04:15:07;5.53;;;3.63;;
29238;SDS011;16267;48.194;11.546;2023-04-03T04:17:34;7.85;;;3.83;;
29238;SDS011;16267;48.194;11.546;2023-04-03T04:20:00;6.47;;;4.07;;
29238;SDS011;16267;48.194;11.546;2023-04-03T04:22:27;4.95;;;3.40;;
29238;SDS011;16267;48.194;11.546;2023-04-03T04:24:53;4.47;;;3.28;;
29238;SDS011;16267;48.194;11.546;2023-04-03T04:27:19;4.57;;;3.38;;
29238;SDS011;16267;48.194;11.546;2023-04-03T04:29:45;7.93;;;4.63;;
29238;SDS011;16267;48.194;11.546;2023-04-03T04:32:11;5.72;;;3.65;;
29238;SDS011;16267;48.194;11.546;2023-04-03T04:34:36;5.28;;;3.53;;
29238;SDS011;16267;48.194;11.546;2023-04-03T04:37:02;5.82;;;3.60;;
29238;SDS011;16267;48.194;11.546;2023-04-03T04:39:28;6.38;;;3.65;;
29238;SDS011;16267;48.194;11.546;2023-04-03T04:41:54;7.22;;;3.95;;
29238;SDS011;16267;48.194;11.546;2023-04-03T04:44:20;6.80;;;3.78;;
29238;SDS011;16267;48.194;11.546;2023-04-03T04:46:45;6.10;;;3.85;;
29238;SDS011;16267;48.194;11.546;2023-04-03T04:49:11;5.75;;;4.60;;
29238;SDS011;16267;48.194;11.546;2023-04-03T04:51:37;5.40;;;3.60;;
29238;SDS011;16267;48.194;11.546;2023-04-03T04:54:03;6.50;;;3.95;;
29238;SDS011;16267;48.194;11.546;2023-04-03T04:56:28;8.35;;;3.65;;
29238;SDS011;16267;48.194;11.546;2023-04-03T04:58:54;5.93;;;4.05;;
29238;SDS011;16267;48.194;11.546;2023-04-03T05:01:20;4.63;;;3.33;;
29238;SDS011;16267;48.194;11.546;2023-04-03T05:03:46;5.50;;;3.80;;
29238;SDS011;16267;48.194;11.546;2023-04-03T05:06:13;7.13;;;3.97;;
29238;SDS011;16267;48.194;11.546;2023-04-03T05:08:38;8.13;;;4.18;;
29238;SDS011;16267;48.194;11.546;2023-04-03T05:11:04;8.90;;;4.40;;
29238;SDS011;16267;48.194;11.546;2023-04-03T05:13:30;5.10;;;4.00;;
29238;SDS011;16267;48.194;11.546;2023-04-03T05:15:56;6.28;;;3.92;;
29238;SDS011;16267;48.194;11.546;2023-04-03T05:18:21;5.38;;;4.07;;
29238;SDS011;16267;48.194;11.546;2023-04-03T05:20:50;8.73;;;4.32;;
29238;SDS011;16267;48.194;11.546;2023-04-03T05:23:21;8.40;;;4.22;;
29238;SDS011;16267;48.194;11.546;2023-04-03T05:25:47;7.07;;;4.22;;
29238;SDS011;16267;48.194;11.546;2023-04-03T05:28:13;7.72;;;4.45;;
29238;SDS011;16267;48.194;11.546;2023-04-03T05:30:39;5.28;;;3.92;;
29238;SDS011;16267;48.194;11.546;2023-04-03T05:33:05;5.45;;;3.78;;
29238;SDS011;16267;48.194;11.546;2023-04-03T05:35:31;7.57;;;4.30;;
29238;SDS011;16267;48.194;11.546;2023-04-03T05:37:57;9.77;;;4.72;;
29238;SDS011;16267;48.194;11.546;2023-04-03T05:40:23;14.35;;;4.70;;
29238;SDS011;16267;48.194;11.546;2023-04-03T05:42:48;6.18;;;4.07;;
29238;SDS011;16267;48.194;11.546;2023-04-03T05:45:14;7.15;;;4.22;;
29238;SDS011;16267;48.194;11.546;2023-04-03T05:47:40;6.40;;;4.78;;
29238;SDS011;16267;48.194;11.546;2023-04-03T05:50:06;7.90;;;4.25;;
29238;SDS011;16267;48.194;11.546;2023-04-03T05:52:36;8.25;;;4.65;;
29238;SDS011;16267;48.194;11.546;2023-04-03T05:55:06;8.05;;;4.80;;
29238;SDS011;16267;48.194;11.546;2023-04-03T06:00:07;7.80;;;4.72;;
29238;SDS011;16267;48.194;11.546;2023-04-03T06:02:37;7.40;;;4.13;;
29238;SDS011;16267;48.194;11.546;2023-04-03T06:05:03;7.75;;;4.05;;
29238;SDS011;16267;48.194;11.546;2023-04-03T06:07:30;8.52;;;4.97;;
29238;SDS011;16267;48.194;11.546;2023-04-03T06:09:56;6.50;;;4.43;;
29238;SDS011;16267;48.194;11.546;2023-04-03T06:12:23;6.90;;;4.85;;
29238;SDS011;16267;48.194;11.546;2023-04-03T06:14:49;7.13;;;4.30;;
29238;SDS011;16267;48.194;11.546;2023-04-03T06:17:15;9.48;;;4.18;;
29238;SDS011;16267;48.194;11.546;2023-04-03T06:19:42;6.32;;;4.45;;
29238;SDS011;16267;48.194;11.546;2023-04-03T06:22:09;10.13;;;5.00;;
29238;SDS011;16267;48.194;11.546;2023-04-03T06:24:36;7.57;;;4.95;;
29238;SDS011;16267;48.194;11.546;2023-04-03T06:27:03;6.82;;;4.20;;
29238;SDS011;16267;48.194;11.546;2023-04-03T06:29:29;12.00;;;5.32;;
29238;SDS011;16267;48.194;11.546;2023-04-03T06:31:55;8.43;;;4.93;;
29238;SDS011;16267;48.194;11.546;2023-04-03T06:34:21;7.40;;;4.40;;
29238;SDS011;16267;48.194;11.546;2023-04-03T06:36:47;12.20;;;8.00;;
29238;SDS011;16267;48.194;11.546;2023-04-03T06:39:17;10.48;;;4.63;;
29238;SDS011;16267;48.194;11.546;2023-04-03T06:41:47;6.72;;;4.63;;
29238;SDS011;16267;48.194;11.546;2023-04-03T06:44:12;9.35;;;5.47;;
29238;SDS011;16267;48.194;11.546;2023-04-03T06:46:40;9.48;;;4.55;;
29238;SDS011;16267;48.194;11.546;2023-04-03T06:49:07;6.65;;;5.55;;
29238;SDS011;16267;48.194;11.546;2023-04-03T06:51:34;9.70;;;5.20;;
29238;SDS011;16267;48.194;11.546;2023-04-03T06:54:01;10.27;;;4.95;;
29238;SDS011;16267;48.194;11.546;2023-04-03T06:56:29;10.45;;;5.53;;
29238;SDS011;16267;48.194;11.546;2023-04-03T06:58:55;8.38;;;4.47;;
29238;SDS011;16267;48.194;11.546;2023-04-03T07:01:22;10.40;;;5.40;;
29238;SDS011;16267;48.194;11.546;2023-04-03T07:03:52;10.20;;;5.22;;
29238;SDS011;16267;48.194;11.546;2023-04-03T07:06:18;11.82;;;8.30;;
29238;SDS011;16267;48.194;11.546;2023-04-03T07:08:45;9.55;;;5.53;;
29238;SDS011;16267;48.194;11.546;2023-04-03T07:11:13;12.77;;;7.10;;
29238;SDS011;16267;48.194;11.546;2023-04-03T07:13:39;10.68;;;6.72;;
29238;SDS011;16267;48.194;11.546;2023-04-03T07:16:06;9.57;;;5.88;;
29238;SDS011;16267;48.194;11.546;2023-04-03T07:18:32;8.82;;;5.43;;
29238;SDS011;16267;48.194;11.546;2023-04-03T07:20:58;10.85;;;6.85;;
29238;SDS011;16267;48.194;11.546;2023-04-03T07:23:25;10.38;;;6.68;;
29238;SDS011;16267;48.194;11.546;2023-04-03T07:25:51;9.43;;;7.28;;
29238;SDS011;16267;48.194;11.546;2023-04-03T07:28:18;8.27;;;5.60;;
29238;SDS011;16267;48.194;11.546;2023-04-03T07:30:46;12.10;;;8.15;;
29238;SDS011;16267;48.194;11.546;2023-04-03T07:33:15;10.43;;;6.20;;
29238;SDS011;16267;48.194;11.546;2023-04-03T07:35:44;9.63;;;6.63;;
29238;SDS011;16267;48.194;11.546;2023-04-03T07:38:10;14.68;;;7.82;;
29238;SDS011;16267;48.194;11.546;2023-04-03T07:40:37;9.18;;;5.10;;
29238;SDS011;16267;48.194;11.546;2023-04-03T07:43:04;10.02;;;5.47;;
29238;SDS011;16267;48.194;11.546;2023-04-03T07:45:31;9.52;;;5.47;;
29238;SDS011;16267;48.194;11.546;2023-04-03T07:48:00;11.50;;;7.88;;
29238;SDS011;16267;48.194;11.546;2023-04-03T07:50:25;13.18;;;6.80;;
29238;SDS011;16267;48.194;11.546;2023-04-03T07:52:52;10.93;;;7.18;;
29238;SDS011;16267;48.194;11.546;2023-04-03T07:55:19;10.77;;;6.15;;
29238;SDS011;16267;48.194;11.546;2023-04-03T07:57:45;11.85;;;6.75;;
29238;SDS011;16267;48.194;11.546;2023-04-03T08:00:11;15.63;;;9.35;;
29238;SDS011;16267;48.194;11.546;2023-04-03T08:02:38;9.98;;;6.35;;
29238;SDS011;16267;48.194;11.546;2023-04-03T08:05:04;11.68;;;6.40;;
29238;SDS011;16267;48.194;11.546;2023-04-03T08:07:30;9.25;;;6.05;;
29238;SDS011;16267;48.194;11.546;2023-04-03T08:09:56;13.38;;;6.22;;
29238;SDS011;16267;48.194;11.546;2023-04-03T08:12:22;9.85;;;6.72;;
29238;SDS011;16267;48.194;11.546;2023-04-03T08:14:48;10.00;;;6.82;;
29238;SDS011;16267;48.194;11.546;2023-04-03T08:17:13;7.55;;;5.53;;
29238;SDS011;16267;48.194;11.546;2023-04-03T08:19:39;10.63;;;5.68;;
29238;SDS011;16267;48.194;11.546;2023-04-03T08:22:06;12.45;;;5.78;;
29238;SDS011;16267;48.194;11.546;2023-04-03T08:24:33;9.35;;;6.10;;
29238;SDS011;16267;48.194;11.546;2023-04-03T08:26:59;13.52;;;7.72;;
29238;SDS011;16267;48.194;11.546;2023-04-03T08:29:25;11.13;;;6.70;;
29238;SDS011;16267;48.194;11.546;2023-04-03T08:31:51;12.25;;;6.47;;
29238;SDS011;16267;48.194;11.546;2023-04-03T08:34:17;11.63;;;6.22;;
29238;SDS011;16267;48.194;11.546;2023-04-03T08:36:44;11.52;;;5.80;;
29238;SDS011;16267;48.194;11.546;2023-04-03T08:39:10;14.32;;;7.25;;
29238;SDS011;16267;48.194;11.546;2023-04-03T08:41:38;14.32;;;8.45;;
29238;SDS011;16267;48.194;11.546;2023-04-03T08:49:56;14.77;;;8.60;;
29238;SDS011;16267;48.194;11.546;2023-04-03T08:55:00;18.70;;;8.45;;
29238;SDS011;16267;48.194;11.546;2023-04-03T08:57:40;15.30;;;11.00;;
29238;SDS011;16267;48.194;11.546;2023-04-03T09:02:51;15.02;;;9.93;;
29238;SDS011;16267;48.194;11.546;2023-04-03T09:05:20;9.53;;;5.90;;
29238;SDS011;16267;48.194;11.546;2023-04-03T09:08:24;14.30;;;8.30;;
29238;SDS011;16267;48.194;11.546;2023-04-03T09:16:49;11.38;;;8.07;;
29238;SDS011;16267;48.194;11.546;2023-04-03T09:22:23;12.90;;;6.75;;
29238;SDS011;16267;48.194;11.546;2023-04-03T09:24:58;10.60;;;6.22;;
29238;SDS011;16267;48.194;11.546;2023-04-03T09:27:28;7.93;;;5.85;;
29238;SDS011;16267;48.194;11.546;2023-04-03T09:29:55;11.52;;;5.28;;
29238;SDS011;16267;48.194;11.546;2023-04-03T09:32:32;10.73;;;6.15;;
29238;SDS011;16267;48.194;11.546;2023-04-03T09:35:13;17.83;;;10.18;;
29238;SDS011;16267;48.194;11.546;2023-04-03T09:37:49;12.55;;;7.80;;
29238;SDS011;16267;48.194;11.546;2023-04-03T09:42:50;13.88;;;8.38;;
29238;SDS011;16267;48.194;11.546;2023-04-03T09:45:22;12.38;;;6.40;;
29238;SDS011;16267;48.194;11.546;2023-04-03T09:48:15;14.68;;;7.75;;
29238;SDS011;16267;48.194;11.546;2023-04-03T09:53:29;10.73;;;5.95;;
29238;SDS011;16267;48.194;11.546;2023-04-03T09:58:43;7.78;;;4.80;;
29238;SDS011;16267;48.194;11.546;2023-04-03T10:01:21;11.93;;;7.00;;
29238;SDS011;16267;48.194;11.546;2023-04-03T10:06:46;14.90;;;5.97;;
29238;SDS011;16267;48.194;11.546;2023-04-03T10:09:28;7.53;;;5.32;;
29238;SDS011;16267;48.194;11.546;2023-04-03T10:14:38;8.85;;;6.00;;
29238;SDS011;16267;48.194;11.546;2023-04-03T10:23:15;5.68;;;4.97;;
29238;SDS011;16267;48.194;11.546;2023-04-03T10:26:10;8.18;;;4.72;;
29238;SDS011;16267;48.194;11.546;2023-04-03T10:29:06;8.53;;;4.57;;
29238;SDS011;16267;48.194;11.546;2023-04-03T10:34:39;9.10;;;4.35;;
29238;SDS011;16267;48.194;11.546;2023-04-03T10:40:05;12.48;;;4.13;;
29238;SDS011;16267;48.194;11.546;2023-04-03T10:46:10;8.35;;;3.20;;
29238;SDS011;16267;48.194;11.546;2023-04-03T10:49:03;6.25;;;3.08;;
29238;SDS011;16267;48.194;11.546;2023-04-03T10:52:03;5.20;;;2.90;;
29238;SDS011;16267;48.194;11.546;2023-04-03T10:57:26;9.07;;;3.35;;
29238;SDS011;16267;48.194;11.546;2023-04-03T10:59:56;5.95;;;3.58;;
29238;SDS011;16267;48.194;11.546;2023-04-03T11:02:31;7.35;;;2.92;;
29238;SDS011;16267;48.194;11.546;2023-04-03T11:07:40;5.45;;;3.00;;
29238;SDS011;16267;48.194;11.546;2023-04-03T11:12:52;9.40;;;3.50;;
29238;SDS011;16267;48.194;11.546;2023-04-03T11:15:26;9.40;;;3.05;;
29238;SDS011;16267;48.194;11.546;2023-04-03T11:17:59;11.27;;;3.20;;
29238;SDS011;16267;48.194;11.546;2023-04-03T11:20:52;7.45;;;3.08;;
29238;SDS011;16267;48.194;11.546;2023-04-03T11:23:36;6.55;;;3.30;;
29238;SDS011;16267;48.194;11.546;2023-04-03T11:26:13;8.77;;;3.22;;
29238;SDS011;16267;48.194;11.546;2023-04-03T11:28:46;9.80;;;3.58;;
29238;SDS011;16267;48.194;11.546;2023-04-03T11:34:19;5.47;;;3.10;;
29238;SDS011;16267;48.194;11.546;2023-04-03T11:36:58;5.60;;;2.40;;
29238;SDS011;16267;48.194;11.546;2023-04-03T11:39:29;7.90;;;2.60;;
29238;SDS011;16267;48.194;11.546;2023-04-03T12:08:43;6.05;;;2.10;;
29238;SDS011;16267;48.194;11.546;2023-04-03T12:24:33;5.13;;;2.10;;
29238;SDS011;16267;48.194;11.546;2023-04-03T12:30:05;3.35;;;2.17;;
29238;SDS011;16267;48.194;11.546;2023-04-03T12:35:44;3.20;;;1.70;;
29238;SDS011;16267;48.194;11.546;2023-04-03T12:38:52;4.28;;;1.70;;
29238;SDS011;16267;48.194;11.546;2023-04-03T12:47:51;6.28;;;1.75;;
29238;SDS011;16267;48.194;11.546;2023-04-03T12:50:21;4.07;;;2.03;;
29238;SDS011;16267;48.194;11.546;2023-04-03T12:52:51;3.97;;;1.98;;
29238;SDS011;16267;48.194;11.546;2023-04-03T12:55:31;13.48;;;2.70;;
29238;SDS011;16267;48.194;11.546;2023-04-03T12:58:13;4.43;;;1.90;;
29238;SDS011;16267;48.194;11.546;2023-04-03T13:03:34;3.20;;;1.90;;
29238;SDS011;16267;48.194;11.546;2023-04-03T13:06:42;6.05;;;2.08;;
29238;SDS011;16267;48.194;11.546;2023-04-03T13:09:06;6.97;;;1.88;;
29238;SDS011;16267;48.194;11.546;2023-04-03T13:11:48;4.05;;;1.88;;
29238;SDS011;16267;48.194;11.546;2023-04-03T13:14:20;6.78;;;2.00;;
29238;SDS011;16267;48.194;11.546;2023-04-03T13:16:55;4.25;;;2.10;;
29238;SDS011;16267;48.194;11.546;2023-04-03T13:19:41;5.32;;;2.08;;
29238;SDS011;16267;48.194;11.546;2023-04-03T13:25:09;5.13;;;2.05;;
29238;SDS011;16267;48.194;11.546;2023-04-03T13:27:39;9.02;;;3.85;;
29238;SDS011;16267;48.194;11.546;2023-04-03T13:30:17;2.75;;;1.90;;
29238;SDS011;16267;48.194;11.546;2023-04-03T13:32:59;4.53;;;1.80;;
29238;SDS011;16267;48.194;11.546;2023-04-03T13:35:33;4.22;;;1.80;;
29238;SDS011;16267;48.194;11.546;2023-04-03T13:38:01;6.82;;;2.60;;
29238;SDS011;16267;48.194;11.546;2023-04-03T13:40:50;6.10;;;3.20;;
29238;SDS011;16267;48.194;11.546;2023-04-03T13:43:21;8.27;;;5.20;;
29238;SDS011;16267;48.194;11.546;2023-04-03T13:45:54;7.80;;;2.40;;
29238;SDS011;16267;48.194;11.546;2023-04-03T13:48:47;7.40;;;2.60;;
29238;SDS011;16267;48.194;11.546;2023-04-03T13:51:20;7.22;;;2.03;;
29238;SDS011;16267;48.194;11.546;2023-04-03T13:53:56;7.40;;;2.10;;
29238;SDS011;16267;48.194;11.546;2023-04-03T13:56:34;10.05;;;2.88;;
29238;SDS011;16267;48.194;11.546;2023-04-03T14:01:40;3.92;;;2.15;;
29238;SDS011;16267;48.194;11.546;2023-04-03T14:04:18;5.45;;;2.83;;
29238;SDS011;16267;48.194;11.546;2023-04-03T14:06:47;7.03;;;3.97;;
29238;SDS011;16267;48.194;11.546;2023-04-03T14:09:15;4.57;;;1.95;;
29238;SDS011;16267;48.194;11.546;2023-04-03T14:11:43;3.85;;;2.25;;
29238;SDS011;16267;48.194;11.546;2023-04-03T14:14:12;7.70;;;2.53;;
29238;SDS011;16267;48.194;11.546;2023-04-03T14:16:43;7.20;;;3.17;;
29238;SDS011;16267;48.194;11.546;2023-04-03T14:19:18;5.15;;;2.03;;
29238;SDS011;16267;48.194;11.546;2023-04-03T14:21:47;3.70;;;1.83;;
29238;SDS011;16267;48.194;11.546;2023-04-03T14:24:13;5.68;;;2.70;;
29238;SDS011;16267;48.194;11.546;2023-04-03T14:26:38;5.13;;;2.53;;
29238;SDS011;16267;48.194;11.546;2023-04-03T14:29:04;3.25;;;1.92;;
29238;SDS011;16267;48.194;11.546;2023-04-03T14:31:31;5.75;;;2.67;;
29238;SDS011;16267;48.194;11.546;2023-04-03T14:33:56;4.78;;;2.22;;
29238;SDS011;16267;48.194;11.546;2023-04-03T14:36:23;5.00;;;1.67;;
29238;SDS011;16267;48.194;11.546;2023-04-03T14:38:52;4.68;;;1.85;;
29238;SDS011;16267;48.194;11.546;2023-04-03T14:41:21;3.42;;;1.85;;
29238;SDS011;16267;48.194;11.546;2023-04-03T14:43:49;3.30;;;1.60;;
29238;SDS011;16267;48.194;11.546;2023-04-03T14:48:56;2.40;;;1.55;;
29238;SDS011;16267;48.194;11.546;2023-04-03T14:51:24;3.20;;;1.70;;
29238;SDS011;16267;48.194;11.546;2023-04-03T14:53:51;4.95;;;2.00;;
29238;SDS011;16267;48.194;11.546;2023-04-03T14:56:19;2.80;;;1.70;;
29238;SDS011;16267;48.194;11.546;2023-04-03T14:58:52;3.13;;;1.50;;
29238;SDS011;16267;48.194;11.546;2023-04-03T15:01:25;3.83;;;1.60;;
29238;SDS011;16267;48.194;11.546;2023-04-03T15:03:52;2.88;;;1.60;;
29238;SDS011;16267;48.194;11.546;2023-04-03T15:06:18;3.80;;;1.40;;
29238;SDS011;16267;48.194;11.546;2023-04-03T15:08:45;3.50;;;1.80;;
29238;SDS011;16267;48.194;11.546;2023-04-03T15:11:12;7.05;;;2.38;;
29238;SDS011;16267;48.194;11.546;2023-04-03T15:13:40;3.83;;;1.70;;
29238;SDS011;16267;48.194;11.546;2023-04-03T15:16:11;5.40;;;1.65;;
29238;SDS011;16267;48.194;11.546;2023-04-03T15:18:44;2.70;;;1.63;;
29238;SDS011;16267;48.194;11.546;2023-04-03T15:21:11;3.17;;;2.15;;
29238;SDS011;16267;48.194;11.546;2023-04-03T15:23:38;2.85;;;1.10;;
29238;SDS011;16267;48.194;11.546;2023-04-03T15:26:04;2.85;;;1.40;;
29238;SDS011;16267;48.194;11.546;2023-04-03T15:28:35;4.13;;;1.83;;
29238;SDS011;16267;48.194;11.546;2023-04-03T15:31:07;3.60;;;1.70;;
29238;SDS011;16267;48.194;11.546;2023-04-03T15:33:33;3.63;;;1.70;;
29238;SDS011;16267;48.194;11.546;2023-04-03T15:36:00;4.40;;;1.50;;
29238;SDS011;16267;48.194;11.546;2023-04-03T15:38:26;3.35;;;1.25;;
29238;SDS011;16267;48.194;11.546;2023-04-03T15:40:53;6.45;;;1.40;;
29238;SDS011;16267;48.194;11.546;2023-04-03T15:43:20;4.82;;;1.73;;
29238;SDS011;16267;48.194;11.546;2023-04-03T15:45:46;3.28;;;1.75;;
29238;SDS011;16267;48.194;11.546;2023-04-03T15:48:12;5.95;;;1.60;;
29238;SDS011;16267;48.194;11.546;2023-04-03T15:50:38;4.03;;;1.42;;
29238;SDS011;16267;48.194;11.546;2023-04-03T15:53:05;4.32;;;2.13;;
29238;SDS011;16267;48.194;11.546;2023-04-03T15:55:32;4.78;;;2.00;;
29238;SDS011;16267;48.194;11.546;2023-04-03T15:58:00;3.80;;;1.60;;
29238;SDS011;16267;48.194;11.546;2023-04-03T16:00:27;2.95;;;1.70;;
29238;SDS011;16267;48.194;11.546;2023-04-03T16:02:58;3.15;;;1.80;;
29238;SDS011;16267;48.194;11.546;2023-04-03T16:05:29;8.43;;;2.20;;
29238;SDS011;16267;48.194;11.546;2023-04-03T16:07:56;4.70;;;1.80;;
29238;SDS011;16267;48.194;11.546;2023-04-03T16:10:26;3.58;;;1.65;;
29238;SDS011;16267;48.194;11.546;2023-04-03T16:12:52;3.45;;;1.90;;
29238;SDS011;16267;48.194;11.546;2023-04-03T16:15:18;2.53;;;1.42;;
29238;SDS011;16267;48.194;11.546;2023-04-03T16:17:44;3.88;;;1.80;;
29238;SDS011;16267;48.194;11.546;2023-04-03T16:20:10;3.75;;;1.55;;
29238;SDS011;16267;48.194;11.546;2023-04-03T16:22:37;3.67;;;1.60;;
29238;SDS011;16267;48.194;11.546;2023-04-03T16:25:05;3.53;;;1.90;;
29238;SDS011;16267;48.194;11.546;2023-04-03T16:27:32;5.50;;;1.73;;
29238;SDS011;16267;48.194;11.546;2023-04-03T16:29:58;4.55;;;1.70;;
29238;SDS011;16267;48.194;11.546;2023-04-03T16:32:24;8.10;;;2.30;;
29238;SDS011;16267;48.194;11.546;2023-04-03T16:34:54;6.60;;;1.63;;
29238;SDS011;16267;48.194;11.546;2023-04-03T16:37:20;3.65;;;1.75;;
29238;SDS011;16267;48.194;11.546;2023-04-03T16:39:46;2.63;;;1.63;;
29238;SDS011;16267;48.194;11.546;2023-04-03T16:42:11;4.72;;;1.90;;
29238;SDS011;16267;48.194;11.546;2023-04-03T16:44:37;2.92;;;1.45;;
29238;SDS011;16267;48.194;11.546;2023-04-03T16:47:04;4.90;;;1.48;;
29238;SDS011;16267;48.194;11.546;2023-04-03T16:49:31;5.13;;;1.45;;
29238;SDS011;16267;48.194;11.546;2023-04-03T16:51:59;2.97;;;1.88;;
29238;SDS011;16267;48.194;11.546;2023-04-03T16:54:29;2.92;;;1.55;;